Bookmark and Share
Track history (hours):
 

Repubbli Del Brasile

Last reported at 2014-Apr-12 03:15 UTC. Time now 2014-Apr-23 19:15 UTC.
Position N 09°03' W 015°44'.
Warning: this ship's position is 11 days out of date.

Length 209 m; draft 9.9 m.

Type: Ship (hazmat cat D). MMSI: 247310000.

NotesDate/timePositionNaut miles runAvg speedWind from/ knotsBaromVisibWave heightAir tempDewpointWater temp
2014-Apr-12 03:15N 09°03' W 015°44'1216.9
2014-Apr-12 02:33N 09°10' W 015°53'5216.8
2014-Apr-11 23:27N 09°46' W 016°31'20016.2
2014-Apr-11 11:09N 12°58' W 017°28'3217.4
2014-Apr-11 09:20N 13°29' W 017°26'  
2014-Apr-04 09:12N 35°56' W 005°50'1213.7
2014-Apr-04 08:21N 35°57' W 005°36'1114.0
2014-Apr-04 07:34N 36°01' W 005°23'1414.1
2014-Apr-04 06:33N 36°03' W 005°05'45415.0
2014-Apr-03 00:23N 37°47' E 004°07'1517.2
2014-Apr-02 23:29N 37°51' E 004°26'1615.7
2014-Apr-02 22:26N 37°56' E 004°46'1516.6
2014-Apr-02 21:33N 37°59' E 005°04'1717.4
2014-Apr-02 20:33N 38°04' E 005°25'1717.2
2014-Apr-02 19:33N 38°09' E 005°46'1616.0
2014-Apr-02 18:32N 38°13' E 006°06'1717.5
2014-Apr-02 17:32N 38°17' E 006°28'1616.5
2014-Apr-02 16:33N 38°22' E 006°47'1816.6
2014-Apr-02 15:29N 38°27' E 007°09'1616.8
2014-Apr-02 14:31N 38°31' E 007°29'1616.3
2014-Apr-02 13:31N 38°35' E 007°49'2416.9
2014-Apr-02 12:06N 38°41' E 008°19'1918.2
2014-Apr-02 11:03N 38°46' E 008°43'714.7
2014-Apr-02 10:33N 38°48' E 008°52'1716.8
2014-Apr-02 09:33N 38°53' E 009°13'  

Dump ship's entire track history

sailing weather and tide predictions

Repubbli Del Brasile — IBZB — position and weather